Time;durP1;ratioP1;P1;durP2;ratioP2;P2;SDS_P1;SDS_P2;PMS_P1;PMS_P2;Temp;Humidity;BMP_temperature;BMP_pressure;BME280_temperature;BME280_humidity;BME280_pressure;Samples;Min_cycle;Max_cycle;Signal;HPM_P1;HPM_P2
2023/04/02 00:01:19;;;;;;;9.13;2.33;;;3.90;99.90;;;;;;5073536;28;20104;-54
2023/04/02 00:03:52;;;;;;;9.50;2.97;;;;;;;;;;5073045;28;20181;-52
2023/04/02 00:06:29;;;;;;;8.75;3.22;;;3.90;99.90;;;;;;5073015;28;20058;-54
2023/04/02 00:08:58;;;;;;;5.97;1.88;;;3.80;99.90;;;;;;5072563;28;20052;-53
2023/04/02 00:11:43;;;;;;;10.45;3.83;;;3.60;99.90;;;;;;5072297;28;20056;-54
2023/04/02 00:14:30;;;;;;;8.65;3.08;;;3.70;99.90;;;;;;5072467;28;20580;-55
2023/04/02 00:16:58;;;;;;;5.72;2.17;;;3.80;99.90;;;;;;5074814;28;20051;-54
2023/04/02 00:19:42;;;;;;;4.32;1.58;;;3.90;99.90;;;;;;5073404;28;20044;-55
2023/04/02 00:22:19;;;;;;;8.68;3.17;;;3.70;99.90;;;;;;5072839;28;20040;-54
2023/04/02 00:24:45;;;;;;;7.22;2.78;;;;;;;;;;5073197;28;20043;-53
2023/04/02 00:27:13;;;;;;;10.75;2.20;;;3.50;99.90;;;;;;5072842;28;20051;-54
2023/04/02 00:29:50;;;;;;;10.30;3.10;;;3.40;99.90;;;;;;5070488;28;20036;-52
2023/04/02 00:32:29;;;;;;;7.95;2.40;;;3.40;99.90;;;;;;5073103;28;20047;-55
2023/04/02 00:34:56;;;;;;;12.10;2.63;;;3.20;99.90;;;;;;5072515;28;21032;-54
2023/04/02 00:37:26;;;;;;;6.50;2.30;;;3.00;99.90;;;;;;5073044;28;20531;-54
2023/04/02 00:40:06;;;;;;;8.40;3.17;;;;;;;;;;5072841;28;20360;-55
2023/04/02 00:42:33;;;;;;;6.03;2.25;;;2.80;99.90;;;;;;5073525;28;20050;-53
2023/04/02 00:45:01;;;;;;;15.02;3.30;;;2.80;99.90;;;;;;5072992;28;20036;-54
2023/04/02 00:47:34;;;;;;;7.82;2.80;;;2.80;99.90;;;;;;5073732;28;20051;-54
2023/04/02 00:50:12;;;;;;;9.43;2.83;;;2.50;99.90;;;;;;5073038;28;20051;-54
2023/04/02 00:52:39;;;;;;;8.10;2.95;;;2.60;99.90;;;;;;5072919;28;20299;-55
2023/04/02 00:55:19;;;;;;;6.60;2.65;;;2.60;99.90;;;;;;5073068;28;20082;-55
2023/04/02 00:57:46;;;;;;;8.18;2.40;;;;;;;;;;5073439;28;20186;-53
2023/04/02 01:00:33;;;;;;;7.30;2.90;;;2.50;99.90;;;;;;5072697;28;20452;-53
2023/04/02 01:03:17;;;;;;;8.90;2.13;;;2.50;99.90;;;;;;5072795;28;20457;-54
2023/04/02 01:05:47;;;;;;;6.80;2.38;;;2.40;99.90;;;;;;5071606;28;20118;-54
2023/04/02 01:08:33;;;;;;;6.53;2.97;;;2.40;99.90;;;;;;5071963;28;20039;-55
2023/04/02 01:11:17;;;;;;;7.22;2.33;;;2.50;99.90;;;;;;5072277;28;22448;-54
2023/04/02 01:14:08;;;;;;;11.02;2.65;;;2.40;99.90;;;;;;5070898;28;20471;-52
2023/04/02 01:16:45;;;;;;;9.80;2.90;;;2.30;99.90;;;;;;5071336;28;20139;-54
2023/04/02 01:19:38;;;;;;;10.02;2.67;;;2.30;99.90;;;;;;5071529;28;20075;-55
2023/04/02 01:22:18;;;;;;;4.65;2.47;;;2.50;99.90;;;;;;5071831;28;20105;-54
2023/04/02 01:24:44;;;;;;;8.50;2.63;;;;;;;;;;5071751;28;20513;-54
2023/04/02 01:27:27;;;;;;;6.55;2.28;;;2.20;99.90;;;;;;5071809;28;20564;-54
2023/04/02 01:29:56;;;;;;;6.65;2.13;;;2.30;99.90;;;;;;5071823;28;20044;-54
2023/04/02 01:32:25;;;;;;;10.43;2.78;;;2.40;99.90;;;;;;5072774;28;20044;-54
2023/04/02 01:34:51;;;;;;;5.60;2.50;;;2.20;99.90;;;;;;5072006;28;20424;-54
2023/04/02 01:37:48;;;;;;;6.32;2.53;;;2.10;99.90;;;;;;5073211;28;20071;-55
2023/04/02 01:40:43;;;;;;;8.65;2.33;;;2.10;99.90;;;;;;5072019;28;20493;-55
2023/04/02 01:43:12;;;;;;;6.40;2.10;;;2.10;99.90;;;;;;5072022;28;20196;-52
2023/04/02 01:45:38;;;;;;;10.18;3.20;;;;;;;;;;5071197;28;20040;-53
2023/04/02 01:48:19;;;;;;;8.80;2.15;;;2.00;99.90;;;;;;5072138;28;20073;-52
2023/04/02 01:50:48;;;;;;;9.98;2.40;;;2.00;99.90;;;;;;5071826;28;20093;-52
2023/04/02 01:53:16;;;;;;;11.15;2.72;;;2.00;99.90;;;;;;5070523;28;20376;-53
2023/04/02 01:55:42;;;;;;;8.98;2.28;;;;;;;;;;5071536;28;20153;-53
2023/04/02 01:58:10;;;;;;;4.55;1.60;;;1.80;99.90;;;;;;5072147;28;20040;-52
2023/04/02 02:00:54;;;;;;;5.53;1.58;;;2.00;99.90;;;;;;5072774;28;20044;-54
2023/04/02 02:03:20;;;;;;;6.28;2.20;;;;;;;;;;5073649;28;20912;-54
2023/04/02 02:05:47;;;;;;;7.65;1.83;;;;;;;;;;5072413;28;20075;-53
2023/04/02 02:08:30;;;;;;;8.45;2.13;;;1.80;99.90;;;;;;5073390;28;20086;-52
2023/04/02 02:10:57;;;;;;;4.57;1.90;;;1.70;99.90;;;;;;5073256;28;20444;-54
2023/04/02 02:13:24;;;;;;;5.15;1.70;;;;;;;;;;5076674;28;20052;-54
2023/04/02 02:15:50;;;;;;;6.43;1.95;;;;;;;;;;5077335;28;20044;-53
2023/04/02 02:18:22;;;;;;;5.25;2.08;;;1.60;99.90;;;;;;5077048;28;20479;-54
2023/04/02 02:20:49;;;;;;;9.15;1.90;;;1.80;99.90;;;;;;5076641;28;20119;-55
2023/04/02 02:23:15;;;;;;;5.10;2.13;;;;;;;;;;5075387;28;20040;-54
2023/04/02 02:25:42;;;;;;;7.22;2.42;;;;;;;;;;5074924;28;20044;-56
2023/04/02 02:28:24;;;;;;;7.57;1.85;;;1.50;99.90;;;;;;5075839;28;20040;-55
2023/04/02 02:31:02;;;;;;;;;;;1.50;99.90;;;;;;5075163;28;20066;-54
2023/04/02 02:33:39;;;;;;;4.55;1.60;;;1.60;99.90;;;;;;5074330;28;19959;-56
2023/04/02 02:36:14;;;;;;;5.68;1.95;;;1.50;99.90;;;;;;5075517;28;20403;-54
2023/04/02 02:38:53;;;;;;;6.78;2.10;;;1.40;99.90;;;;;;5089527;28;20044;-55
2023/04/02 02:41:31;;;;;;;4.18;1.60;;;1.60;99.90;;;;;;5075222;28;20101;-54
2023/04/02 02:44:20;;;;;;;13.75;2.67;;;1.50;99.90;;;;;;5074608;28;20058;-52
2023/04/02 02:46:51;;;;;;;7.13;1.48;;;1.50;99.90;;;;;;5070415;28;21269;-54
2023/04/02 02:49:35;;;;;;;4.40;1.17;;;1.50;99.90;;;;;;5074289;28;22873;-52
2023/04/02 02:52:21;;;;;;;6.30;1.52;;;1.30;99.90;;;;;;5075146;28;20459;-53
2023/04/02 02:55:03;;;;;;;6.88;2.13;;;1.40;99.90;;;;;;5073726;28;20076;-53
2023/04/02 02:57:34;;;;;;;5.55;1.50;;;1.50;99.90;;;;;;5074021;28;20075;-54
2023/04/02 03:00:02;;;;;;;5.50;1.50;;;;;;;;;;5073859;28;20122;-54
2023/04/02 03:02:28;;;;;;;5.18;1.92;;;;;;;;;;5074242;28;21792;-54
2023/04/02 03:04:55;;;;;;;7.85;1.75;;;1.30;99.90;;;;;;5074623;28;20052;-55
2023/04/02 03:07:24;;;;;;;6.95;1.52;;;1.30;99.90;;;;;;5074006;28;20040;-54
2023/04/02 03:10:03;;;;;;;5.53;1.55;;;1.20;99.90;;;;;;5073737;28;20051;-54
2023/04/02 03:12:34;;;;;;;7.43;1.90;;;;;;;;;;5074112;28;20048;-53
2023/04/02 03:15:07;;;;;;;6.28;1.70;;;1.00;99.90;;;;;;5075086;28;20032;-54
2023/04/02 03:17:48;;;;;;;5.68;1.73;;;1.10;99.90;;;;;;5075963;28;20036;-54
2023/04/02 03:20:20;;;;;;;6.10;1.58;;;;;;;;;;5074931;28;20052;-54
2023/04/02 03:23:07;;;;;;;7.70;1.35;;;0.90;99.90;;;;;;5074878;28;20048;-54
2023/04/02 03:25:42;;;;;;;5.95;1.55;;;1.00;99.90;;;;;;5074641;28;20036;-54
2023/04/02 03:28:19;;;;;;;7.25;1.50;;;1.00;99.90;;;;;;5074667;28;20079;-54
2023/04/02 03:31:09;;;;;;;7.40;1.85;;;0.90;99.90;;;;;;5075667;28;20580;-53
2023/04/02 03:33:40;;;;;;;9.52;1.73;;;;;;;;;;5075141;28;20128;-54
2023/04/02 03:36:29;;;;;;;6.85;2.22;;;0.90;99.90;;;;;;5075723;28;20052;-53
2023/04/02 03:39:00;;;;;;;3.40;0.90;;;;;;;;;;5076112;28;20079;-53
2023/04/02 03:41:29;;;;;;;6.85;1.00;;;;;;;;;;5074265;28;20048;-54
2023/04/02 03:44:00;;;;;;;6.57;1.75;;;1.10;99.90;;;;;;5074141;28;20135;-54
2023/04/02 03:46:56;;;;;;;7.38;1.60;;;;;;;;;;5073817;28;20421;-53
2023/04/02 03:49:25;;;;;;;7.18;1.67;;;1.00;99.90;;;;;;5073119;28;20592;-54
2023/04/02 03:52:03;;;;;;;4.68;1.58;;;1.20;99.90;;;;;;5073953;28;21393;-54
2023/04/02 03:54:29;;;;;;;8.05;1.52;;;;;;;;;;5073294;28;20072;-54
2023/04/02 03:56:55;;;;;;;6.45;2.25;;;1.00;99.90;;;;;;5073258;28;20032;-54
2023/04/02 03:59:26;;;;;;;10.82;1.75;;;1.00;99.90;;;;;;5073685;28;20043;-54
2023/04/02 04:01:59;;;;;;;5.47;1.65;;;0.90;99.90;;;;;;5073333;28;20052;-54
2023/04/02 04:04:28;;;;;;;9.52;1.40;;;0.90;99.90;;;;;;5072259;28;20472;-55
2023/04/02 04:06:55;;;;;;;10.63;2.22;;;;;;;;;;5073200;28;21324;-54
2023/04/02 04:09:25;;;;;;;9.80;2.83;;;;;;;;;;5074020;28;20115;-54
2023/04/02 04:11:55;;;;;;;10.40;2.38;;;0.90;99.90;;;;;;5073935;28;20052;-55
2023/04/02 04:14:32;;;;;;;6.40;1.20;;;0.90;99.90;;;;;;5073286;28;20124;-53
2023/04/02 04:17:12;;;;;;;8.25;1.75;;;0.90;99.90;;;;;;5072511;28;20051;-55
2023/04/02 04:19:44;;;;;;;3.63;1.20;;;;;;;;;;5072872;28;20071;-54
2023/04/02 04:22:29;;;;;;;6.18;1.35;;;0.80;99.90;;;;;;5074031;28;20039;-53
2023/04/02 04:25:16;;;;;;;4.22;1.52;;;0.90;99.90;;;;;;5072773;28;20404;-53
2023/04/02 04:28:15;;;;;;;3.83;1.48;;;1.00;99.90;;;;;;5072694;28;20384;-54
2023/04/02 04:30:58;;;;;;;5.03;1.27;;;1.00;99.90;;;;;;5073261;28;20051;-54
2023/04/02 04:33:33;;;;;;;7.45;1.50;;;1.20;99.90;;;;;;5071091;28;20428;-54
2023/04/02 04:36:01;;;;;;;6.47;1.35;;;1.00;99.90;;;;;;5072722;28;20047;-54
2023/04/02 04:38:38;;;;;;;7.28;1.30;;;;;;;;;;5072988;28;20086;-51
2023/04/02 04:41:04;;;;;;;6.05;1.70;;;;;;;;;;5075020;28;20109;-54
2023/04/02 04:43:43;;;;;;;6.68;2.40;;;1.00;99.90;;;;;;5074193;28;20036;-55
2023/04/02 04:46:15;;;;;;;4.60;1.35;;;0.90;99.90;;;;;;5073069;28;20037;-52
2023/04/02 04:48:47;;;;;;;6.88;1.80;;;;;;;;;;5074275;28;20071;-55
2023/04/02 04:51:37;;;;;;;6.00;1.55;;;;;;;;;;5072632;28;20048;-54
2023/04/02 04:54:03;;;;;;;4.07;1.30;;;;;;;;;;5069615;28;20522;-54
2023/04/02 04:56:31;;;;;;;2.63;1.13;;;1.00;99.90;;;;;;5072832;28;20040;-51
2023/04/02 04:59:06;;;;;;;6.53;1.42;;;;;;;;;;5074843;28;20107;-54
2023/04/02 05:01:32;;;;;;;6.40;1.48;;;;;;;;;;5073326;28;20044;-53
2023/04/02 05:04:16;;;;;;;6.03;1.40;;;0.80;99.90;;;;;;5073836;28;20047;-54
2023/04/02 05:06:54;;;;;;;6.95;2.30;;;;;;;;;;5071841;28;20493;-53
2023/04/02 05:09:33;;;;;;;8.82;1.60;;;;;;;;;;5072819;28;20706;-55
2023/04/02 05:12:02;;;;;;;8.30;1.63;;;0.80;99.90;;;;;;5071643;28;20128;-53
2023/04/02 05:14:48;;;;;;;7.32;1.60;;;;;;;;;;5072252;28;20515;-54
2023/04/02 05:17:22;;;;;;;7.80;1.85;;;1.00;99.90;;;;;;5071603;28;20063;-54
2023/04/02 05:19:55;;;;;;;8.50;1.70;;;;;;;;;;5071987;28;20051;-55
2023/04/02 05:23:05;;;;;;;8.48;1.35;;;1.00;99.90;;;;;;5072088;28;20104;-53
2023/04/02 05:25:32;;;;;;;6.38;1.48;;;;;;;;;;5070033;28;20051;-54
2023/04/02 05:28:24;;;;;;;4.38;0.98;;;1.10;99.90;;;;;;5071392;28;20044;-54
2023/04/02 05:30:56;;;;;;;6.05;1.40;;;1.40;99.90;;;;;;5071182;28;20663;-55
2023/04/02 05:33:26;;;;;;;;;;;1.80;99.90;;;;;;5072269;28;20036;-55
2023/04/02 05:36:00;;;;;;;5.72;1.40;;;1.70;99.90;;;;;;5070871;28;19931;-55
2023/04/02 05:38:29;;;;;;;5.45;1.30;;;2.30;99.90;;;;;;5072309;28;20079;-55
2023/04/02 05:41:30;;;;;;;7.78;1.52;;;2.40;99.90;;;;;;5071525;28;20036;-55
2023/04/02 05:44:21;;;;;;;6.47;1.45;;;3.00;99.90;;;;;;5067012;28;20138;-56
2023/04/02 05:46:55;;;;;;;7.90;1.65;;;3.10;99.90;;;;;;5075352;28;20130;-56
2023/04/02 05:49:34;;;;;;;6.68;1.88;;;3.50;99.90;;;;;;5075802;28;20059;-56
2023/04/02 05:52:02;;;;;;;7.75;1.75;;;3.60;99.90;;;;;;5075263;28;20097;-54
2023/04/02 05:54:56;;;;;;;3.33;0.65;;;3.70;99.90;;;;;;5076212;28;20576;-54
2023/04/02 05:57:30;;;;;;;6.22;1.55;;;3.60;99.90;;;;;;5074460;28;23800;-56
2023/04/02 05:59:59;;;;;;;4.18;1.40;;;4.30;99.90;;;;;;5075650;28;20523;-55
2023/04/02 06:02:52;;;;;;;9.25;1.50;;;5.30;99.90;;;;;;5074651;28;20040;-53
2023/04/02 06:05:25;;;;;;;4.65;1.30;;;6.10;99.90;;;;;;5075883;28;20044;-56
2023/04/02 06:08:11;;;;;;;6.43;1.33;;;6.60;99.90;;;;;;5076526;28;20147;-56
2023/04/02 06:10:47;;;;;;;10.27;1.58;;;6.90;99.90;;;;;;5076373;28;20137;-55
2023/04/02 06:13:17;;;;;;;6.03;1.55;;;7.40;99.90;;;;;;5075845;28;20370;-55
2023/04/02 06:15:43;;;;;;;5.28;1.27;;;7.90;99.90;;;;;;5075717;28;20089;-55
2023/04/02 06:18:28;;;;;;;5.50;1.35;;;8.40;99.90;;;;;;5054995;28;20044;-55
2023/04/02 06:20:54;;;;;;;7.47;1.40;;;8.10;99.90;;;;;;5076028;28;20036;-56
2023/04/02 06:23:45;;;;;;;5.50;1.40;;;8.70;99.90;;;;;;5076486;28;20361;-56
2023/04/02 06:26:30;;;;;;;7.68;1.25;;;9.10;99.90;;;;;;5075909;28;20048;-56
2023/04/02 06:29:07;;;;;;;7.97;1.08;;;11.10;99.90;;;;;;5074758;28;20234;-54
2023/04/02 06:32:12;;;;;;;5.25;1.50;;;7.90;99.90;;;;;;5074069;28;20040;-53
2023/04/02 06:34:39;;;;;;;8.60;1.58;;;9.00;99.90;;;;;;5030729;28;20045;-55
2023/04/02 06:37:35;;;;;;;5.03;1.58;;;7.50;99.90;;;;;;5031917;28;20053;-56
2023/04/02 06:40:03;;;;;;;5.07;1.33;;;8.20;99.90;;;;;;5059163;28;20105;-54
2023/04/02 06:42:39;;;;;;;6.28;1.20;;;8.00;99.90;;;;;;5074536;28;20424;-55
2023/04/02 06:45:13;;;;;;;4.93;1.30;;;7.40;99.90;;;;;;5073719;28;20063;-55
2023/04/02 06:47:42;;;;;;;7.43;1.65;;;7.50;99.90;;;;;;5073941;28;20044;-55
2023/04/02 06:50:33;;;;;;;4.03;1.17;;;7.50;99.90;;;;;;5074386;28;20044;-53
2023/04/02 06:53:10;;;;;;;6.35;1.17;;;7.70;99.90;;;;;;5073810;28;20131;-55
2023/04/02 06:55:59;;;;;;;2.63;0.68;;;7.60;99.90;;;;;;5073117;28;20044;-56
2023/04/02 06:58:25;;;;;;;5.28;1.30;;;8.00;99.90;;;;;;5073243;28;20040;-54
2023/04/02 07:00:51;;;;;;;5.07;1.30;;;;;;;;;;5073785;28;20044;-55
2023/04/02 07:03:26;;;;;;;4.40;1.05;;;6.50;99.90;;;;;;5074448;28;20032;-53
2023/04/02 07:05:52;;;;;;;4.97;1.20;;;6.30;99.90;;;;;;5089127;28;20035;-55
2023/04/02 07:08:18;;;;;;;5.72;1.00;;;6.10;99.90;;;;;;5075134;28;20052;-54
2023/04/02 07:10:44;;;;;;;6.03;1.48;;;6.10;99.90;;;;;;5072060;28;20148;-51
2023/04/02 07:13:18;;;;;;;4.95;1.25;;;6.30;99.90;;;;;;5073709;28;20334;-55
2023/04/02 07:15:46;;;;;;;6.88;1.17;;;6.60;99.90;;;;;;5073745;28;20055;-54
2023/04/02 07:18:27;;;;;;;8.18;1.20;;;7.40;99.90;;;;;;5073568;28;20042;-55
2023/04/02 07:20:53;;;;;;;3.53;1.15;;;8.80;99.90;;;;;;5074980;28;20056;-55
2023/04/02 07:23:20;;;;;;;4.47;1.17;;;8.00;99.90;;;;;;5073571;28;20028;-55
2023/04/02 07:25:50;;;;;;;6.00;1.30;;;8.70;99.90;;;;;;5071955;28;20048;-55
2023/04/02 07:28:16;;;;;;;7.68;1.65;;;8.60;99.90;;;;;;5074055;28;20408;-55
2023/04/02 07:30:43;;;;;;;3.58;0.93;;;8.60;99.90;;;;;;5072571;28;20055;-56
2023/04/02 07:33:18;;;;;;;7.80;1.65;;;8.00;99.90;;;;;;5072805;28;20807;-54
2023/04/02 07:35:45;;;;;;;3.40;0.77;;;7.30;99.90;;;;;;5072527;28;20062;-55
2023/04/02 07:38:10;;;;;;;4.72;0.88;;;7.10;99.90;;;;;;5071301;28;20163;-54
2023/04/02 07:40:36;;;;;;;6.90;1.90;;;6.90;99.90;;;;;;5073650;28;20415;-55
2023/04/02 07:43:03;;;;;;;4.10;0.98;;;6.70;99.90;;;;;;5072943;28;20319;-54
2023/04/02 07:45:29;;;;;;;6.32;1.30;;;6.60;99.90;;;;;;5074535;28;20055;-53
2023/04/02 07:47:55;;;;;;;5.97;1.17;;;6.10;99.90;;;;;;5073796;28;20035;-54
2023/04/02 07:50:22;;;;;;;4.25;1.33;;;;;;;;;;5075265;28;20058;-55
2023/04/02 07:52:48;;;;;;;4.45;1.10;;;5.60;99.90;;;;;;5074707;28;20048;-54
2023/04/02 07:55:15;;;;;;;8.63;1.95;;;4.60;99.90;;;;;;5073555;28;20074;-53
2023/04/02 07:57:48;;;;;;;3.45;1.30;;;6.70;99.90;;;;;;5071569;28;20115;-55
2023/04/02 08:00:14;;;;;;;4.88;1.23;;;7.00;99.90;;;;;;5073741;28;20048;-56
2023/04/02 08:02:41;;;;;;;3.75;0.98;;;7.30;99.90;;;;;;5071446;28;20136;-54
2023/04/02 08:05:07;;;;;;;5.43;1.15;;;7.20;99.90;;;;;;5073451;28;20032;-54
2023/04/02 08:07:34;;;;;;;5.63;1.27;;;6.50;99.90;;;;;;5074072;28;20051;-55
2023/04/02 08:10:00;;;;;;;4.25;1.10;;;;;;;;;;5072490;28;20428;-56
2023/04/02 08:12:26;;;;;;;5.63;1.35;;;;;;;;;;5072759;28;20093;-55
2023/04/02 08:14:52;;;;;;;2.75;0.77;;;7.10;99.90;;;;;;5072450;28;22176;-55
2023/04/02 08:17:18;;;;;;;9.15;1.20;;;7.60;99.90;;;;;;5073088;28;20121;-55
2023/04/02 08:19:44;;;;;;;5.00;1.15;;;6.90;99.90;;;;;;5072711;28;20269;-55
2023/04/02 08:22:10;;;;;;;6.47;1.20;;;;;;;;;;5071102;28;20043;-54
2023/04/02 08:24:36;;;;;;;4.47;1.33;;;;;;;;;;5072026;28;20086;-56
2023/04/02 08:27:03;;;;;;;6.75;1.25;;;;;;;;;;5073231;28;20040;-55
2023/04/02 08:29:31;;;;;;;4.93;2.05;;;6.00;99.90;;;;;;5072070;28;20055;-51
2023/04/02 08:32:00;;;;;;;4.22;0.90;;;5.60;99.90;;;;;;5071301;28;20492;-54
2023/04/02 08:34:26;;;;;;;6.07;1.45;;;5.90;99.90;;;;;;5071355;28;20596;-53
2023/04/02 08:36:56;;;;;;;4.20;1.05;;;5.70;99.90;;;;;;5072495;28;20052;-54
2023/04/02 08:39:23;;;;;;;5.65;1.63;;;5.80;99.90;;;;;;5072977;28;20067;-54
2023/04/02 08:42:11;;;;;;;6.72;1.17;;;6.20;99.90;;;;;;5071809;28;20206;-54
2023/04/02 08:45:15;;;;;;;6.75;1.10;;;6.50;99.90;;;;;;5071409;28;20492;-56
2023/04/02 08:47:43;;;;;;;7.10;1.58;;;6.30;99.90;;;;;;5071186;28;20763;-55
2023/04/02 08:50:27;;;;;;;4.10;1.13;;;6.00;99.90;;;;;;5072387;28;20598;-51
2023/04/02 08:52:53;;;;;;;3.35;1.20;;;;;;;;;;5072852;28;20047;-55
2023/04/02 08:55:54;;;;;;;3.50;1.27;;;6.20;99.90;;;;;;5071970;28;20327;-55
2023/04/02 08:58:40;;;;;;;4.63;1.02;;;6.20;99.90;;;;;;5071134;28;20071;-54
2023/04/02 09:01:14;;;;;;;6.40;1.40;;;6.30;99.90;;;;;;5070548;28;20040;-54
2023/04/02 09:03:50;;;;;;;3.90;1.02;;;6.70;99.90;;;;;;5070598;28;20041;-55
2023/04/02 09:06:18;;;;;;;3.58;1.02;;;6.90;99.90;;;;;;5071394;28;21169;-55
2023/04/02 09:08:47;;;;;;;5.10;1.30;;;7.10;99.90;;;;;;5070310;28;20055;-54
2023/04/02 09:11:22;;;;;;;5.25;1.48;;;7.10;99.90;;;;;;5073986;28;20561;-54
2023/04/02 09:13:57;;;;;;;2.67;1.02;;;7.00;99.90;;;;;;5072360;28;20052;-55
2023/04/02 09:16:39;;;;;;;4.35;1.25;;;7.10;99.90;;;;;;5072584;28;20040;-55
2023/04/02 09:19:40;;;;;;;4.50;1.10;;;7.10;99.90;;;;;;5073280;28;20070;-55
2023/04/02 09:22:30;;;;;;;3.38;1.00;;;7.20;99.90;;;;;;5038201;28;20044;-55
2023/04/02 09:24:58;;;;;;;2.97;0.68;;;7.50;99.90;;;;;;5069143;28;20063;-54
2023/04/02 09:27:29;;;;;;;4.45;1.42;;;8.00;99.90;;;;;;5071612;28;20581;-55
2023/04/02 09:30:02;;;;;;;4.82;2.08;;;8.30;99.90;;;;;;5071370;28;20156;-55
2023/04/02 09:32:46;;;;;;;5.03;1.15;;;8.90;99.90;;;;;;5072356;28;20043;-54
2023/04/02 09:35:14;;;;;;;2.83;0.90;;;9.00;99.90;;;;;;5070721;28;20480;-55
2023/04/02 09:37:42;;;;;;;5.25;1.70;;;9.80;99.90;;;;;;5071725;28;20440;-55
2023/04/02 09:40:17;;;;;;;5.90;1.17;;;9.90;99.90;;;;;;5071096;28;20327;-55
2023/04/02 09:42:43;;;;;;;4.72;1.10;;;9.90;99.90;;;;;;5071121;28;20547;-55
2023/04/02 09:45:14;;;;;;;3.65;0.90;;;9.50;99.90;;;;;;5072628;28;20048;-55
2023/04/02 09:47:40;;;;;;;4.30;0.98;;;8.80;99.90;;;;;;5071547;28;20036;-55
2023/04/02 09:50:30;;;;;;;4.55;0.98;;;8.20;99.90;;;;;;5072014;28;20051;-54
2023/04/02 09:52:57;;;;;;;5.63;1.15;;;7.90;99.90;;;;;;5070850;28;20063;-55
2023/04/02 09:55:27;;;;;;;3.92;0.80;;;7.50;99.90;;;;;;5070648;28;20036;-53
2023/04/02 09:58:25;;;;;;;4.43;0.90;;;7.30;99.90;;;;;;5070714;28;20050;-54
2023/04/02 10:00:52;;;;;;;5.68;0.60;;;7.20;99.90;;;;;;5059325;28;20063;-55
2023/04/02 10:03:18;;;;;;;4.20;0.95;;;;;;;;;;5070629;28;20474;-55
2023/04/02 10:05:46;;;;;;;4.20;1.10;;;7.40;99.90;;;;;;5070598;28;20162;-54
2023/04/02 10:08:23;;;;;;;4.85;1.20;;;7.30;99.90;;;;;;5070913;28;20040;-55
2023/04/02 10:10:54;;;;;;;3.47;0.75;;;7.60;99.90;;;;;;5071045;28;20132;-53
2023/04/02 10:13:27;;;;;;;4.55;0.98;;;7.60;99.90;;;;;;5070626;28;20460;-53
2023/04/02 10:16:02;;;;;;;3.83;1.02;;;7.50;99.90;;;;;;5071016;28;20048;-54
2023/04/02 10:18:57;;;;;;;3.13;0.95;;;7.80;99.90;;;;;;5070692;28;20042;-52
2023/04/02 10:21:26;;;;;;;4.68;1.00;;;7.70;99.90;;;;;;5073781;28;20052;-54
2023/04/02 10:23:53;;;;;;;2.22;0.60;;;8.00;99.90;;;;;;5072428;28;20585;-51
2023/04/02 10:26:40;;;;;;;5.90;1.55;;;8.00;99.90;;;;;;5072686;28;20139;-52
2023/04/02 10:29:26;;;;;;;2.80;0.70;;;8.30;99.90;;;;;;5072472;28;20049;-55
2023/04/02 10:31:57;;;;;;;7.72;1.55;;;8.20;99.90;;;;;;5072326;28;20473;-52
2023/04/02 10:34:32;;;;;;;4.27;1.00;;;8.40;99.90;;;;;;5075665;28;20060;-52
2023/04/02 10:37:07;;;;;;;5.88;1.20;;;8.40;99.90;;;;;;5075491;28;20079;-55
2023/04/02 10:39:42;;;;;;;6.07;0.90;;;8.40;99.90;;;;;;5076433;28;20040;-55
2023/04/02 10:42:25;;;;;;;3.10;0.77;;;8.40;99.90;;;;;;5075430;28;20075;-53
2023/04/02 10:44:54;;;;;;;;;;;8.40;99.90;;;;;;5076852;28;20043;-54
2023/04/02 10:47:33;;;;;;;3.92;0.85;;;8.40;99.90;;;;;;5075095;28;19931;-54
2023/04/02 10:50:34;;;;;;;3.38;0.88;;;8.40;99.90;;;;;;5075478;28;20513;-54
2023/04/02 10:53:24;;;;;;;5.65;1.13;;;8.70;99.90;;;;;;5073762;28;20048;-55
2023/04/02 10:56:02;;;;;;;4.75;0.80;;;8.90;99.90;;;;;;5075410;28;20040;-50
2023/04/02 10:58:32;;;;;;;6.03;0.98;;;9.10;99.90;;;;;;5074239;28;20046;-55
2023/04/02 11:01:05;;;;;;;2.00;0.65;;;9.20;99.90;;;;;;5073064;28;20044;-54
2023/04/02 11:03:36;;;;;;;2.45;0.57;;;9.00;99.90;;;;;;5073465;28;20123;-55
2023/04/02 11:06:14;;;;;;;5.60;1.00;;;9.10;99.90;;;;;;5073404;28;20557;-55
2023/04/02 11:08:46;;;;;;;2.75;0.80;;;9.70;99.90;;;;;;5074769;28;20452;-53
2023/04/02 11:11:21;;;;;;;2.85;0.90;;;9.00;99.90;;;;;;5070198;28;20849;-53
2023/04/02 11:14:07;;;;;;;1.98;0.52;;;9.00;99.90;;;;;;5072784;28;20067;-55
2023/04/02 11:16:33;;;;;;;3.70;0.80;;;9.00;99.90;;;;;;5072879;28;22060;-50
2023/04/02 11:19:14;;;;;;;2.67;0.68;;;9.10;99.90;;;;;;5073878;28;20043;-50
2023/04/02 11:21:44;;;;;;;3.20;0.80;;;9.10;99.90;;;;;;5074132;28;20052;-50
2023/04/02 11:24:35;;;;;;;3.97;1.13;;;9.00;99.90;;;;;;5073702;28;20672;-53
2023/04/02 11:27:10;;;;;;;3.22;0.75;;;9.30;99.90;;;;;;5074108;28;20063;-50
2023/04/02 11:29:46;;;;;;;4.07;0.75;;;9.30;99.90;;;;;;5073412;28;20571;-50
2023/04/02 11:32:21;;;;;;;3.20;0.65;;;9.40;99.90;;;;;;5074640;28;20232;-52
2023/04/02 11:34:49;;;;;;;4.32;1.25;;;9.30;99.90;;;;;;5072485;28;20055;-51
2023/04/02 11:37:33;;;;;;;2.85;0.90;;;9.20;99.90;;;;;;5073677;28;20101;-52
2023/04/02 11:40:14;;;;;;;3.30;0.68;;;9.50;99.90;;;;;;5074026;28;20240;-52
2023/04/02 11:42:50;;;;;;;4.65;0.93;;;9.30;99.90;;;;;;5072762;28;20036;-52
2023/04/02 11:45:22;;;;;;;6.82;1.00;;;9.30;99.90;;;;;;5075118;28;20051;-50
2023/04/02 11:48:17;;;;;;;5.22;1.30;;;9.20;99.90;;;;;;5074786;28;20047;-50
2023/04/02 11:50:44;;;;;;;2.20;0.50;;;9.40;99.90;;;;;;5071178;28;21183;-52
2023/04/02 11:53:13;;;;;;;3.88;0.60;;;9.10;99.90;;;;;;5074776;28;20115;-52
2023/04/02 11:55:40;;;;;;;3.92;1.17;;;9.30;99.90;;;;;;5074615;28;20089;-52
2023/04/02 11:58:29;;;;;;;2.13;0.57;;;9.20;99.90;;;;;;5072371;28;20047;-51
2023/04/02 12:01:17;;;;;;;2.72;0.57;;;9.30;99.90;;;;;;5060465;28;20055;-51
2023/04/02 12:04:21;;;;;;;5.57;1.02;;;9.40;99.90;;;;;;5069918;28;20118;-53
2023/04/02 12:07:09;;;;;;;2.30;0.57;;;9.30;99.90;;;;;;5064218;28;20062;-53
2023/04/02 12:09:44;;;;;;;4.45;0.73;;;9.20;99.90;;;;;;5073357;28;20070;-51
2023/04/02 12:12:36;;;;;;;3.15;0.80;;;9.20;99.90;;;;;;5073099;28;20040;-52
2023/04/02 12:15:23;;;;;;;4.75;0.77;;;9.20;99.90;;;;;;5073089;28;20529;-53
2023/04/02 12:17:50;;;;;;;2.22;0.60;;;9.40;99.90;;;;;;5072085;28;20071;-47
2023/04/02 12:20:26;;;;;;;2.38;0.93;;;9.50;99.90;;;;;;5072897;28;20524;-51
2023/04/02 12:22:54;;;;;;;4.28;1.13;;;9.50;99.90;;;;;;5070697;28;20670;-54
2023/04/02 12:25:23;;;;;;;1.95;0.57;;;9.60;99.90;;;;;;5072693;28;20675;-52
2023/04/02 12:28:22;;;;;;;1.75;0.52;;;9.50;99.90;;;;;;5072003;28;20599;-52
2023/04/02 12:31:00;;;;;;;2.55;0.70;;;9.50;99.90;;;;;;5071086;28;20512;-55
2023/04/02 12:33:26;;;;;;;2.63;0.75;;;9.40;99.90;;;;;;5071217;28;20072;-53
2023/04/02 12:35:58;;;;;;;3.33;0.85;;;9.40;99.90;;;;;;5072931;28;20503;-54
2023/04/02 12:38:26;;;;;;;2.95;0.47;;;10.50;99.90;;;;;;5072067;28;20040;-53
2023/04/02 12:41:00;;;;;;;4.50;0.70;;;9.40;99.90;;;;;;5072998;28;20096;-51
2023/04/02 12:43:31;;;;;;;4.10;0.63;;;9.50;99.90;;;;;;5071421;28;21240;-51
2023/04/02 12:46:14;;;;;;;3.42;0.88;;;9.50;99.90;;;;;;5072890;28;20048;-52
2023/04/02 12:48:40;;;;;;;4.95;0.55;;;9.80;99.90;;;;;;5072121;28;20044;-52
2023/04/02 12:51:06;;;;;;;7.90;0.80;;;9.70;99.90;;;;;;5072830;28;20055;-52
2023/04/02 12:53:38;;;;;;;3.03;0.63;;;9.80;99.90;;;;;;5071227;28;20105;-53
2023/04/02 12:56:07;;;;;;;4.75;1.20;;;9.80;99.90;;;;;;5071638;28;20458;-52
2023/04/02 12:58:38;;;;;;;2.67;0.70;;;9.70;99.90;;;;;;5073479;28;20131;-53
2023/04/02 13:01:19;;;;;;;9.23;3.13;;;8.40;99.90;;;;;;5073129;28;20103;-53
2023/04/02 13:04:05;;;;;;;3.42;0.80;;;10.70;99.90;;;;;;5073565;28;20052;-52
2023/04/02 13:06:32;;;;;;;2.22;0.88;;;9.30;99.90;;;;;;5073274;28;20075;-53
2023/04/02 13:09:00;;;;;;;3.80;1.02;;;9.60;99.90;;;;;;5071048;28;20403;-52
2023/04/02 13:11:39;;;;;;;9.15;2.17;;;9.50;99.90;;;;;;5072871;28;20088;-51
2023/04/02 13:14:16;;;;;;;4.28;1.02;;;9.40;99.90;;;;;;5073335;28;20051;-53
2023/04/02 13:16:42;;;;;;;4.95;0.77;;;9.50;99.90;;;;;;5072865;28;20039;-52
2023/04/02 13:19:30;;;;;;;2.63;0.80;;;9.70;99.90;;;;;;5073524;28;20070;-50
2023/04/02 13:21:58;;;;;;;6.82;0.88;;;9.50;99.90;;;;;;5074019;28;20139;-54
2023/04/02 13:24:31;;;;;;;1.50;0.52;;;9.50;99.90;;;;;;5073333;28;20047;-52
2023/04/02 13:27:00;;;;;;;1.83;0.70;;;9.60;99.90;;;;;;5072364;28;20100;-52
2023/04/02 13:29:33;;;;;;;3.60;0.90;;;9.40;99.90;;;;;;5071714;28;20686;-53
2023/04/02 13:32:04;;;;;;;5.45;0.50;;;9.20;99.90;;;;;;5070848;28;20461;-52
2023/04/02 13:34:30;;;;;;;2.40;0.70;;;9.20;99.90;;;;;;5071745;28;20048;-52
2023/04/02 13:36:57;;;;;;;7.38;1.67;;;9.00;99.90;;;;;;5071326;28;20043;-54
2023/04/02 13:39:23;;;;;;;4.07;0.80;;;9.10;99.90;;;;;;5071040;28;20040;-54
2023/04/02 13:41:57;;;;;;;13.65;2.30;;;9.00;99.90;;;;;;5069100;28;20039;-50
2023/04/02 13:44:30;;;;;;;5.63;1.48;;;8.90;99.90;;;;;;5070906;28;20246;-50
2023/04/02 13:46:57;;;;;;;4.60;0.90;;;9.00;99.90;;;;;;5071683;28;20512;-51
2023/04/02 13:49:24;;;;;;;3.17;0.90;;;9.10;99.90;;;;;;5070430;28;20518;-53
2023/04/02 13:51:58;;;;;;;5.78;1.35;;;9.10;99.90;;;;;;5071426;28;20066;-54